createdAt,value
2018-06-11T00:01:01.269Z,21.30
2018-06-11T00:03:28.831Z,19.13
2018-06-11T00:05:56.303Z,20.00
2018-06-11T00:08:38.372Z,19.57
2018-06-11T00:11:05.800Z,20.07
2018-06-11T00:13:33.252Z,19.50
2018-06-11T00:16:00.806Z,19.73
2018-06-11T00:18:28.304Z,20.00
2018-06-11T00:20:55.770Z,18.70
2018-06-11T00:23:23.204Z,18.30
2018-06-11T00:25:50.640Z,18.67
2018-06-11T00:28:18.111Z,21.20
2018-06-11T00:30:45.553Z,20.10
2018-06-11T00:33:12.975Z,20.10
2018-06-11T00:35:40.433Z,19.67
2018-06-11T00:38:07.876Z,20.10
2018-06-11T00:40:35.349Z,19.50
2018-06-11T00:43:02.772Z,20.67
2018-06-11T00:45:30.241Z,20.77
2018-06-11T00:47:58.454Z,20.77
2018-06-11T00:50:25.885Z,21.47
2018-06-11T00:52:53.320Z,19.50
2018-06-11T00:55:20.850Z,19.93
2018-06-11T00:57:48.260Z,19.63
2018-06-11T01:00:15.671Z,19.97
2018-06-11T01:02:43.142Z,19.63
2018-06-11T01:05:10.580Z,18.63
2018-06-11T01:07:38.064Z,17.43
2018-06-11T01:10:05.503Z,20.17
2018-06-11T01:12:32.997Z,18.47
2018-06-11T01:15:00.497Z,18.70
2018-06-11T01:17:28.040Z,17.50
2018-06-11T01:19:55.539Z,18.90
2018-06-11T01:22:23.034Z,18.90
2018-06-11T01:24:50.504Z,17.63
2018-06-11T01:27:17.984Z,18.10
2018-06-11T01:29:46.285Z,18.00
2018-06-11T01:32:13.756Z,20.47
2018-06-11T01:34:41.304Z,18.87
2018-06-11T01:37:08.878Z,18.83
2018-06-11T01:39:36.359Z,19.23
2018-06-11T01:42:03.835Z,22.30
2018-06-11T01:44:31.295Z,21.53
2018-06-11T01:46:58.840Z,20.60
2018-06-11T01:49:26.299Z,23.23
2018-06-11T01:51:53.887Z,22.23
2018-06-11T01:54:21.359Z,23.07
2018-06-11T01:56:48.869Z,22.47
2018-06-11T01:59:16.336Z,20.80
2018-06-11T02:01:43.833Z,20.40
2018-06-11T02:04:11.345Z,21.90
2018-06-11T02:06:38.841Z,19.90
2018-06-11T02:09:06.832Z,21.23
2018-06-11T02:11:34.447Z,20.60
2018-06-11T02:14:02.174Z,20.53
2018-06-11T02:16:29.624Z,20.43
2018-06-11T02:18:57.068Z,20.70
2018-06-11T02:21:24.491Z,20.27
2018-06-11T02:23:52.083Z,22.23
2018-06-11T02:26:19.616Z,21.90
2018-06-11T02:28:47.052Z,20.03
2018-06-11T02:31:14.542Z,20.30
2018-06-11T02:33:42.010Z,21.93
2018-06-11T02:36:11.133Z,21.47
2018-06-11T02:38:38.882Z,21.83
2018-06-11T02:41:06.475Z,20.63
2018-06-11T02:43:33.922Z,21.17
2018-06-11T02:46:01.356Z,20.20
2018-06-11T02:48:28.869Z,20.23
2018-06-11T02:50:56.336Z,20.83
2018-06-11T02:53:23.759Z,20.13
2018-06-11T02:55:51.152Z,19.83
2018-06-11T02:58:18.608Z,21.57
2018-06-11T03:00:46.064Z,20.57
2018-06-11T03:03:13.452Z,22.43
2018-06-11T03:05:40.913Z,20.50
2018-06-11T03:08:08.447Z,20.47
2018-06-11T03:10:36.564Z,19.47
2018-06-11T03:13:04.201Z,22.27
2018-06-11T03:15:31.720Z,20.13
2018-06-11T03:17:59.133Z,19.30
2018-06-11T03:20:26.568Z,19.43
2018-06-11T03:22:53.963Z,18.80
2018-06-11T03:25:21.397Z,18.50
2018-06-11T03:27:48.808Z,17.83
2018-06-11T03:30:16.572Z,18.67
2018-06-11T03:32:44.078Z,17.60
2018-06-11T03:35:11.541Z,17.87
2018-06-11T03:37:38.965Z,18.03
2018-06-11T03:40:06.403Z,16.57
2018-06-11T03:42:33.896Z,18.80
2018-06-11T03:45:01.400Z,18.17
2018-06-11T03:47:28.835Z,17.27
2018-06-11T03:49:56.462Z,19.23
2018-06-11T03:52:23.876Z,19.60
2018-06-11T03:54:51.456Z,17.93
2018-06-11T03:57:18.849Z,17.70
2018-06-11T03:59:46.302Z,16.60
2018-06-11T04:02:13.771Z,17.23
2018-06-11T04:04:41.232Z,18.33
2018-06-11T04:07:08.740Z,17.03
2018-06-11T04:09:36.178Z,17.47
2018-06-11T04:12:03.682Z,18.50
2018-06-11T04:14:31.141Z,17.60
2018-06-11T04:17:02.412Z,19.00
2018-06-11T04:19:29.868Z,16.93
2018-06-11T04:21:57.283Z,18.50
2018-06-11T04:24:24.697Z,17.03
2018-06-11T04:26:52.139Z,17.33
2018-06-11T04:29:19.545Z,16.47
2018-06-11T04:31:47.024Z,16.70
2018-06-11T04:34:14.635Z,16.30
2018-06-11T04:36:42.168Z,16.87
2018-06-11T04:39:09.730Z,15.50
2018-06-11T04:41:37.153Z,15.23
2018-06-11T04:44:04.743Z,17.07
2018-06-11T04:46:32.207Z,16.77
2018-06-11T04:48:59.676Z,16.60
2018-06-11T04:51:27.075Z,16.60
2018-06-11T04:53:59.317Z,14.50
2018-06-11T04:56:30.271Z,15.30
2018-06-11T04:58:57.712Z,15.17
2018-06-11T05:01:25.313Z,16.13
2018-06-11T05:03:52.851Z,15.37
2018-06-11T05:06:20.439Z,15.23
2018-06-11T05:08:48.029Z,15.50
2018-06-11T05:11:15.618Z,14.13
2018-06-11T05:13:43.126Z,14.40
2018-06-11T05:16:10.603Z,14.87
2018-06-11T05:18:38.108Z,14.97
2018-06-11T05:21:05.595Z,16.07
2018-06-11T05:23:33.068Z,14.83
2018-06-11T05:26:01.139Z,14.20
2018-06-11T05:28:28.653Z,14.73
2018-06-11T05:30:56.257Z,14.10
2018-06-11T05:33:23.705Z,14.30
2018-06-11T05:35:51.190Z,14.73
2018-06-11T05:38:18.685Z,14.40
2018-06-11T05:40:46.189Z,14.97
2018-06-11T05:43:13.693Z,14.23
2018-06-11T05:45:41.164Z,14.13
2018-06-11T05:48:08.741Z,14.73
2018-06-11T05:50:36.247Z,13.13
2018-06-11T05:53:03.934Z,14.53
2018-06-11T05:55:31.431Z,15.43
2018-06-11T05:57:58.952Z,14.53
2018-06-11T06:00:26.371Z,15.17
2018-06-11T06:02:54.608Z,14.10
2018-06-11T06:05:22.112Z,13.97
2018-06-11T06:07:49.574Z,14.50
2018-06-11T06:10:17.161Z,13.73
2018-06-11T06:12:44.644Z,15.43
2018-06-11T06:15:12.121Z,14.80
2018-06-11T06:17:39.595Z,13.83
2018-06-11T06:20:07.140Z,16.13
2018-06-11T06:22:34.608Z,13.67
2018-06-11T06:25:02.074Z,14.37
2018-06-11T06:27:29.583Z,14.40
2018-06-11T06:29:57.073Z,15.47
2018-06-11T06:32:24.545Z,15.00
2018-06-11T06:34:52.169Z,14.20
2018-06-11T06:37:19.550Z,14.77
2018-06-11T06:39:47.187Z,13.13
2018-06-11T06:42:14.837Z,14.83
2018-06-11T06:44:42.336Z,14.70
2018-06-11T06:47:09.812Z,14.07
2018-06-11T06:49:43.456Z,15.20
2018-06-11T06:52:10.758Z,15.17
2018-06-11T06:54:38.109Z,15.27
2018-06-11T06:57:08.103Z,16.33
2018-06-11T06:59:35.479Z,15.80
2018-06-11T07:02:02.821Z,15.20
2018-06-11T07:04:30.096Z,15.70
2018-06-11T07:06:57.399Z,15.23
2018-06-11T07:09:24.719Z,15.77
2018-06-11T07:11:51.954Z,15.53
2018-06-11T07:14:19.279Z,16.83
2018-06-11T07:16:46.558Z,16.67
2018-06-11T07:19:13.810Z,15.90
2018-06-11T07:21:41.105Z,16.00
2018-06-11T07:24:08.408Z,16.90
2018-06-11T07:26:35.664Z,16.07
2018-06-11T07:29:03.584Z,13.87
2018-06-11T07:31:30.855Z,15.87
2018-06-11T07:33:58.126Z,17.17
2018-06-11T07:36:25.472Z,16.07
2018-06-11T07:38:52.744Z,14.40
2018-06-11T07:41:20.127Z,17.27
2018-06-11T07:43:47.488Z,16.00
2018-06-11T07:46:14.900Z,16.37
2018-06-11T07:48:42.210Z,15.67
2018-06-11T07:51:10.363Z,17.47
2018-06-11T07:53:37.787Z,17.10
2018-06-11T07:56:05.082Z,17.13
2018-06-11T07:58:32.388Z,18.80
2018-06-11T08:01:00.005Z,16.77
2018-06-11T08:03:27.505Z,17.40
2018-06-11T08:05:55.063Z,16.27
2018-06-11T08:08:22.488Z,15.97
2018-06-11T08:10:50.685Z,17.67
2018-06-11T08:13:18.096Z,18.73
2018-06-11T08:15:45.595Z,17.27
2018-06-11T08:18:13.036Z,18.37
2018-06-11T08:20:40.517Z,17.80
2018-06-11T08:23:08.016Z,16.33
2018-06-11T08:25:35.668Z,16.70
2018-06-11T08:28:03.182Z,17.73
2018-06-11T08:30:30.624Z,17.90
2018-06-11T08:32:58.415Z,17.90
2018-06-11T08:35:25.848Z,18.00
2018-06-11T08:37:53.339Z,18.17
2018-06-11T08:40:20.844Z,18.20
2018-06-11T08:42:48.341Z,20.27
2018-06-11T08:45:15.865Z,18.90
2018-06-11T08:47:45.316Z,19.53
2018-06-11T08:50:12.768Z,18.70
2018-06-11T08:52:40.271Z,20.87
2018-06-11T08:55:07.777Z,19.80
2018-06-11T08:57:35.237Z,19.80
2018-06-11T09:00:03.985Z,20.07
2018-06-11T09:02:33.912Z,18.17
2018-06-11T09:05:01.168Z,20.27
2018-06-11T09:07:28.458Z,20.30
2018-06-11T09:09:55.686Z,20.40
2018-06-11T09:12:23.111Z,22.80
2018-06-11T09:14:50.540Z,19.90
2018-06-11T09:17:21.460Z,21.70
2018-06-11T09:19:48.731Z,20.40
2018-06-11T09:22:15.947Z,21.77
2018-06-11T09:24:43.289Z,22.10
2018-06-11T09:27:11.808Z,24.23
2018-06-11T09:29:39.128Z,22.13
2018-06-11T09:32:06.437Z,21.40
2018-06-11T09:34:33.716Z,23.37
2018-06-11T09:37:01.049Z,24.97
2018-06-11T09:39:29.369Z,24.80
2018-06-11T09:41:56.608Z,25.70
2018-06-11T09:44:23.924Z,26.33
2018-06-11T09:46:51.228Z,27.17
2018-06-11T09:49:18.677Z,26.53
2018-06-11T09:51:46.108Z,28.10
2018-06-11T09:54:13.686Z,29.83
2018-06-11T09:56:41.287Z,27.50
2018-06-11T09:59:08.854Z,27.77
2018-06-11T10:01:36.276Z,27.93
2018-06-11T10:04:03.799Z,28.10
2018-06-11T10:06:31.264Z,26.50
2018-06-11T10:08:59.212Z,27.30
2018-06-11T10:11:26.769Z,27.20
2018-06-11T10:13:54.340Z,28.13
2018-06-11T10:16:21.892Z,27.33
2018-06-11T10:18:49.348Z,25.80
2018-06-11T10:21:16.815Z,24.80
2018-06-11T10:23:44.451Z,23.13
2018-06-11T10:26:12.001Z,24.00
2018-06-11T10:28:39.587Z,20.73
2018-06-11T10:31:07.208Z,20.90
2018-06-11T10:33:36.178Z,18.97
2018-06-11T10:36:10.026Z,19.00
2018-06-11T10:38:37.696Z,19.10
2018-06-11T19:10:41.797Z,6.87
2018-06-11T19:13:09.564Z,7.10
2018-06-11T19:15:37.278Z,6.50
2018-06-11T19:18:04.842Z,7.33
2018-06-11T19:20:36.099Z,7.20
2018-06-11T19:23:03.772Z,6.90
2018-06-11T19:25:31.328Z,7.73
2018-06-11T19:27:59.277Z,7.60
2018-06-11T19:30:28.563Z,6.80
2018-06-11T19:32:57.216Z,7.00
2018-06-11T19:35:25.622Z,7.60
2018-06-11T19:37:53.056Z,7.57
2018-06-11T19:40:20.603Z,6.50
2018-06-11T19:42:48.325Z,7.10
2018-06-11T19:45:16.108Z,6.70
2018-06-11T19:47:44.615Z,6.80
2018-06-11T19:50:12.135Z,6.70
2018-06-11T19:52:39.848Z,6.87
2018-06-11T19:55:07.491Z,6.13
2018-06-11T19:57:35.161Z,6.73
2018-06-11T20:00:03.600Z,6.63
2018-06-11T20:02:31.283Z,7.20
2018-06-11T20:04:58.817Z,6.40
2018-06-11T20:07:26.784Z,7.53
2018-06-11T20:09:54.392Z,6.80
2018-06-11T20:12:21.897Z,6.80
2018-06-11T20:14:49.426Z,6.47
2018-06-11T20:17:16.969Z,7.30
2018-06-11T20:19:45.391Z,6.60
2018-06-11T20:22:13.177Z,6.47
2018-06-11T20:24:40.827Z,6.33
2018-06-11T20:27:11.430Z,5.97
2018-06-11T20:29:41.367Z,6.87
2018-06-11T20:32:08.671Z,6.73
2018-06-11T20:34:36.565Z,6.90
2018-06-11T20:37:04.084Z,6.20
2018-06-11T20:39:37.658Z,7.30
2018-06-11T20:42:05.361Z,6.33
2018-06-11T20:44:33.712Z,6.10
2018-06-11T20:47:03.381Z,6.07
2018-06-11T20:49:30.695Z,6.90
2018-06-11T20:51:58.144Z,6.10
2018-06-11T20:54:27.462Z,6.30
2018-06-11T20:56:54.924Z,6.50
2018-06-11T20:59:24.285Z,5.97
2018-06-11T21:01:52.286Z,7.50
2018-06-11T21:04:19.552Z,8.50
2018-06-11T21:06:49.269Z,6.90
2018-06-11T21:09:18.925Z,6.20
2018-06-11T21:11:49.073Z,7.13
2018-06-11T21:14:16.348Z,6.30
2018-06-11T21:16:47.679Z,6.47
2018-06-11T21:19:14.912Z,5.80
2018-06-11T21:21:42.352Z,6.40
2018-06-11T21:24:09.734Z,6.03
2018-06-11T21:26:37.022Z,5.70
2018-06-11T21:29:07.892Z,5.87
2018-06-11T21:31:35.215Z,6.50
2018-06-11T21:34:04.187Z,6.77
2018-06-11T21:36:34.945Z,6.07
2018-06-11T21:39:02.496Z,6.23
2018-06-11T21:41:29.724Z,6.97
2018-06-11T21:44:04.919Z,6.97
2018-06-11T21:46:32.179Z,7.00
2018-06-11T21:48:59.486Z,8.00
2018-06-11T21:51:26.739Z,7.13
2018-06-11T21:53:54.104Z,7.13
2018-06-11T21:56:21.436Z,7.60
2018-06-11T21:58:48.803Z,7.57
2018-06-11T22:01:16.332Z,8.30
2018-06-11T22:03:43.745Z,8.17
2018-06-11T22:06:11.153Z,7.67
2018-06-11T22:08:38.429Z,8.30
2018-06-11T22:11:05.700Z,8.07
2018-06-11T22:13:32.944Z,7.50
2018-06-11T22:16:00.153Z,7.90
2018-06-11T22:18:27.513Z,8.13
2018-06-11T22:20:54.806Z,8.90
2018-06-11T22:23:22.073Z,8.90
2018-06-11T22:25:49.313Z,8.77
2018-06-11T22:28:16.616Z,8.27
2018-06-11T22:30:44.062Z,8.53
2018-06-11T22:33:11.352Z,8.37
2018-06-11T22:35:38.673Z,8.57
2018-06-11T22:38:06.122Z,8.87
2018-06-11T22:40:33.435Z,8.40
2018-06-11T22:43:04.503Z,8.20
2018-06-11T22:45:31.921Z,9.20
2018-06-11T22:47:59.307Z,8.80
2018-06-11T22:50:26.536Z,9.23
2018-06-11T22:52:53.796Z,9.20
2018-06-11T22:55:21.052Z,9.73
2018-06-11T22:57:48.283Z,8.57
2018-06-11T23:00:22.839Z,8.97
2018-06-11T23:02:50.115Z,9.80
2018-06-11T23:05:17.366Z,9.97
2018-06-11T23:07:44.618Z,10.43
2018-06-11T23:10:11.879Z,9.63
2018-06-11T23:12:39.235Z,10.03
2018-06-11T23:15:06.481Z,10.07
2018-06-11T23:17:33.725Z,10.63
2018-06-11T23:20:00.981Z,9.80
2018-06-11T23:22:28.249Z,9.73
2018-06-11T23:24:55.479Z,10.40
2018-06-11T23:27:22.737Z,10.00
2018-06-11T23:29:51.133Z,10.27
2018-06-11T23:32:19.155Z,10.30
2018-06-11T23:34:46.373Z,10.63
2018-06-11T23:37:13.605Z,10.00
2018-06-11T23:39:40.844Z,10.80
2018-06-11T23:42:08.132Z,10.23
2018-06-11T23:44:35.416Z,11.07
2018-06-11T23:47:02.735Z,10.00
2018-06-11T23:49:30.068Z,10.40
2018-06-11T23:51:57.304Z,11.17
2018-06-11T23:54:24.532Z,10.77
2018-06-11T23:56:51.773Z,10.50
2018-06-11T23:59:19.011Z,11.10
